Alba, PA

4:30 AM EDT on October 24, 2014 (GMT -0400)
Southside Rd | Change Station
CLOSE
Current Station
Personal Weather Station
Location: Canton, PA
Elevation: 1335 ft
Nearby Weather Stations

Elev 1335 ft 41.65 °N, 76.83 °W | Updated 13 seconds ago

Overcast
Overcast
50.5 °F
Feels Like 50.5 °F
N
6.9
Wind Variable Wind from NE
Gusts 6.9 mph

Today
High -- | Low -- °F
--% Chance of Precip.
Yesterday
High -- | Low -- °F
Precip. -- in
7:29 AM 6:12 PM
New Moon, 0% visible
Pressure 29.95 in
Visibility 10.0 miles
Clouds Few 1400 ft
Mostly Cloudy 1900 ft
Overcast 4000 ft
Dew Point 47 °F
Humidity 87%
Rainfall 0.00 in
Snow Depth Not available.
UV 0 out of 12
Pollen .30 out of 12
Air Quality Not available.
Flu Activity Sporadic
SPECI KELM 240818Z AUTO 04003KT 10SM FEW014 BKN019 OVC040 10/08 A2995 RMK AO2 T01000083

More Conditions Fewer Conditions

Pressure 29.95 in
Visibility 10.0 miles
Clouds Few 1400 ft
Mostly Cloudy 1900 ft
Overcast 4000 ft
Dew Point 47 °F
Humidity 87%
Rainfall 0.00 in
Snow Depth Not available.
UV 0 out of 12
Pollen .30 out of 12
Air Quality Not available.
Flu Activity Sporadic
SPECI KELM 240818Z AUTO 04003KT 10SM FEW014 BKN019 OVC040 10/08 A2995 RMK AO2 T01000083

More Conditions Fewer Conditions

10-Day Weather Forecast

Almanac

Astronomy

Oct. 24, 2014 Rise Set
Actual Time 7:29 AM EDT 6:12 PM EDT
Civil Twilight 7:01 AM EDT 6:40 PM EDT
Nautical Twilight 6:28 AM EDT 7:13 PM EDT
Astronomical Twilight 5:56 AM EDT 7:45 PM EDT
Moon 8:07 AM EDT 6:50 PM EDT
Length of Visible Light 11h 39m
Length of Day
10h 42m
Tomorrow will be 2m 35s shorter.
New Moon, 0% of the Moon is Illuminated
Today
New Moon
Oct 30
First Quarter
Nov 6
Full
Nov 14
Last Quarter
Nov 22
New

Today's Extremes

State Highs State Lows

Community

WunderPhotos

Upload Photos

1,764,511 photos uploaded!

WunderBlogs® & News

Nearby

Snow Depth

Station Depth Elevation
No new snow has been reported.

Earthquake Activity

City Distance Mag. Time & Date
No recent earthquake activity has been reported nearby.
Minimum magnitude displayed is 2.5.

Coastal Water Temperatures

Place Temperature
No Stations Reporting

Nearby Weather Stations